• Join FlightAware (Why Join?)
  • Login
  • US Flag 
11:52PM EDT


 

Airport Tracker/Info


-or-


 

Live Flight TrackerFlight Track Log ✈ CTL13 ✈ 24-Apr-2013 ✈ KEYE - KMDW

Flight Track Log - Related Links

Times and Time Zones

All times are in EDT time to prevent confusion due to time zone crossing. See the CTL13 flight status page for this flight to view local times or setup timezone preferences in your user account.

Time Position Orientation Groundspeed Altitude Reporting Facility
EDT Latitude Longitude Course Direction KTS MPH feet Rate Location/Type
08:21PM 39.9167 -86.2833 15° North 163 188 2,600  Level Indianapolis TRACON
08:21PM 39.9333 -86.3167 303° West 152 175 3,200 720 Climbing Indianapolis TRACON
08:22PM 39.9481 -86.3364 314° West 150 173 3,400 720 Climbing Chicago Center
08:23PM 39.9778 -86.3744 316° Northwest 149 171 4,200 600 Climbing Chicago Center
08:24PM 40.0075 -86.4119 316° Northwest 148 170 4,700 480 Climbing Indianapolis Center
08:25PM 40.0392 -86.4486 318° Northwest 150 173 5,200 480 Climbing Indianapolis Center
08:26PM 40.0499 -86.2037 15° North  Level FlightAware Approximate
08:26PM 40.0711 -86.4867 318° Northwest 152 175 5,800  Level Indianapolis Center
08:27PM 40.1017 -86.5253 316° Northwest 152 175 6,100 120 Climbing Indianapolis Center
08:28PM 40.1367 -86.5639 320° Northwest 158 182 6,100 -60 Level Indianapolis Center
08:29PM 40.1717 -86.6039 319° Northwest 163 188 6,000  Descending Indianapolis Center
08:30PM 40.2042 -86.6411 319° Northwest 160 184 6,100  Climbing Indianapolis Center
08:31PM 40.2397 -86.6850 317° Northwest 152 175 6,000  Descending Chicago Center
08:32PM 40.2728 -86.7281 315° West 151 174 6,100  Climbing Chicago Center
08:33PM 40.3025 -86.7653 316° Northwest 152 175 6,000  Descending Chicago Center
08:34PM 40.3353 -86.7981 323° Northwest 153 176 6,100  Climbing Chicago Center
08:35PM 40.3664 -86.8403 314° West 153 176 6,100 -60 Level Chicago Center
08:36PM 40.3983 -86.8806 316° Northwest 152 175 6,000 -60 Descending Chicago Center
08:37PM 40.4344 -86.9214 319° Northwest 152 175 6,000  Level Chicago Center
08:38PM 40.4642 -86.9589 316° Northwest 154 177 6,000  Level Chicago Center
08:39PM 40.4961 -86.9992 316° Northwest 152 175 6,000  Level Chicago Center
08:40PM 40.5292 -87.0331 322° Northwest 152 175 6,000  Level Chicago Center
08:41PM 40.5614 -87.0719 317° Northwest 154 177 6,000  Level Chicago Center
08:42PM 40.6103 -87.0958 340° North 160 184 6,000  Level Chicago Center
08:43PM 40.6506 -87.1172 338° Northwest 161 185 6,000  Level Chicago Center
08:44PM 40.6900 -87.1392 337° Northwest 156 180 6,000  Level Chicago Center
08:46PM 40.7308 -87.1617 337° Northwest 159 183 6,000  Level Chicago Center
08:47PM 40.7719 -87.1853 336° Northwest 161 185 6,000  Level Chicago Center
08:48PM 40.8217 -87.2106 339° North 160 184 6,000  Level Chicago Center
08:49PM 40.8617 -87.2325 337° Northwest 157 181 6,100  Climbing Chicago Center
08:50PM 40.9019 -87.2547 337° Northwest 158 182 6,100 -300 Level Chicago Center
08:51PM 40.9456 -87.2767 339° North 164 189 5,500 -720 Descending Chicago Center
08:52PM 40.9903 -87.3011 338° Northwest 171 197 4,700 -780 Descending Chicago Center
08:53PM 41.0453 -87.3297 339° North 175 201 4,000 -420 Descending Chicago Center
08:54PM 41.0889 -87.3542 337° Northwest 175 201 3,900  Descending Chicago Center
08:55PM 41.1297 -87.3764 338° Northwest 168 193 4,000  Climbing Chicago Center
08:56PM 41.1703 -87.3986 338° Northwest 163 188 4,000  Level Chicago Center
08:57PM 41.2111 -87.4200 338° Northwest 160 184 4,000  Level Chicago Center
08:58PM 41.2608 -87.4444 340° North 160 184 4,000 -60 Level Chicago Center
08:59PM 41.2867 -87.4222 33° Northeast 176 203 3,900  Descending Chicago Center
09:00PM 41.2492 -87.3969 153° Southeast 163 188 4,000  Climbing Chicago Center
09:01PM 41.2131 -87.3744 155° Southeast 152 175 4,000  Level Chicago Center
09:02PM 41.1769 -87.3536 157° South 146 168 4,000 -60 Level Chicago Center
09:03PM 41.1461 -87.3344 155° Southeast 136 157 3,900  Descending Chicago Center
09:04PM 41.1683 -87.3592 320° Northwest 138 159 4,000  Climbing Chicago Center
09:05PM 41.2150 -87.3614 358° North 158 182 4,000  Level Chicago Center
09:06PM 41.2639 -87.3669 355° North 167 192 4,000 -60 Level Chicago Center
09:07PM 41.3122 -87.3714 356° North 172 198 3,900  Descending Chicago Center
09:08PM 41.3603 -87.3772 355° North 174 200 4,000  Climbing Chicago Center
09:09PM 41.4131 -87.4028 340° North 180 207 3,900  Descending Chicago Center
09:10PM 41.4547 -87.4319 332° Northwest 174 200 4,000  Climbing Chicago Center
09:11PM 41.4953 -87.4611 332° Northwest 170 196 3,900  Descending Chicago Center
09:12PM 41.5353 -87.4908 331° Northwest 168 193 4,000  Climbing Chicago Center
09:13PM 41.5753 -87.5219 330° Northwest 167 192 4,000 -60 Level Chicago Center
09:14PM 41.6239 -87.5567 332° Northwest 167 192 3,900 -60 Descending Chicago Center
09:15PM 41.6642 -87.5847 333° Northwest 166 191 3,900 -540 Level Chicago Center
09:16PM 41.6983 -87.6308 315° West 182 209 2,800 -1,020 Descending Chicago Center
09:17PM 41.7167 -87.6667 304° West 168 193 2,300 -720 Descending Chicago TRACON
09:18PM 41.7667 -87.6833 346° North 168 193 1,700 -600 Descending Chicago TRACON
09:19PM 41.8000 -87.7167 323° Northwest 144 166 1,200 -600 Descending Chicago TRACON